logo dgac
Jueves 13 de Diciembre del 2018
Buscar por aerodromo o helipuerto
Ingrese nombre de aeródromo, localidad o designador OACI:

Aeródromo: Capitán Fuentes Martinez (PUB) (SCFM)

Ubicación: Porvenir, XII Región, Chile (53º 15' 13'' S, 70º 19' 09'' W) Ver ubicación en el mapa

Pistas

Orientación Dimensión Pendiente Superficie Resistencia APCH THR RWY PAPI
03/21 960 x 30 0,40 ASPH 20.000 kg No
09/27 2500 x 30 0,30 ASPH PCN 12 F/Y/C/U No
Horas de operación HJ
Elevación 32 m / 104 ft
Otra Información Adm : DGAC.
Uso : PUB
Ubicado 5 km NE Porvenir
TEL/FAX (61) 2745500/2745501 CEL (09) 91581768

Cámara de Aeródromo www.dgac.gob.cl

Otra información ver AIP-Chile Volumen I AD 3.9-15.7-P

CCCM/FCCV Descargar
andera de Chile
Mapa de Capitán Fuentes Martinez (PUB) (SCFM)

Último METAR

METAR SCFM 132000Z 18018KT 9999 FEW030 14/00 Q1003

Último TAF

TAF SCFM 131102Z 1312/1400 30010KT 9999 FEW040 TN08/1400Z TX13/1318Z BECMG 1313/1315 22015KT BECMG 1321/1323 25010KT

Últimas fotos cámaras

Imagen aerodromo Capitán Fuentes Martinez (PUB) (SCFM) Oeste tomada el 13-12-2018 10:52:10 Imagen aerodromo Capitán Fuentes Martinez (PUB) (SCFM) Este tomada el 13-12-2018 10:52:47

Último NOTAM

No hay notams registrados para este aeródromo

LLegadas a Capitán Fuentes Martinez (PUB) (SCFM)

En vuelo

Vuelo Procedencia Hora Despegue Local Hora Arribo Local

Salidas de Capitán Fuentes Martinez (PUB) (SCFM)

En vuelo

Vuelo Hacia Hora Despegue Local Hora Arribo Local